Afric Star — A8KJ8 — position and weather

sailwx.info

Track history (hours):
 
Tides and Currents Weather Stations Pressure Air Temp Water Temp Dewpoint Dewpoint Depression Visibility Wind Speed Wind Dir Waves Ship Positions

Afric Star

Last reported at 2016-May-17 01:18 UTC. Time now 2016-May-27 02:21 UTC.
Position N 09°06' W 079°41'.
Warning: this ship's position is 10 days out of date.

Length 158 m; draft 7.6 m.

Type: Cargo ship. MMSI: 636013069.

Date/timePositionNaut miles runAvg speedWind from/ knotsBaromVisibWave heightAir tempDewpointWater temp
2016-May-17 01:18N 09°06' W 079°41'5 6.1
2016-May-17 00:34N 09°07' W 079°46'1111.4
2016-May-16 23:33N 09°13' W 079°55'3 3.3
2016-May-16 22:32N 09°17' W 079°55'0 0.4
2016-May-16 21:33N 09°17' W 079°55'4 3.9
2016-May-16 20:34N 09°21' W 079°55'2 1.5
2016-May-16 19:31N 09°22' W 079°56'0 0.1
2016-May-16 18:31N 09°22' W 079°56'0 0.0
2016-May-16 17:31N 09°22' W 079°56'0 0.1
2016-May-16 16:28N 09°22' W 079°56'0 0.1
2016-May-16 15:31N 09°22' W 079°56'0 0.0
2016-May-16 14:31N 09°22' W 079°56'1 0.8
2016-May-16 13:33N 09°23' W 079°55'2 1.9
2016-May-16 12:29N 09°24' W 079°57'0 0.0
2016-May-16 11:31N 09°24' W 079°57'0 0.1
2016-May-16 10:31N 09°24' W 079°56'0 0.1
2016-May-16 09:32N 09°24' W 079°56'0 0.0
2016-May-16 08:31N 09°24' W 079°56'0 0.0
2016-May-16 07:28N 09°24' W 079°56'0 0.0
2016-May-16 06:34N 09°24' W 079°56'0 0.0
2016-May-16 05:31N 09°24' W 079°56'0 0.0
2016-May-16 04:28N 09°24' W 079°56'0 0.0
2016-May-16 03:31N 09°24' W 079°56'1 0.6
2016-May-16 02:34N 09°25' W 079°56'1110.6
2016-May-16 01:33N 09°34' W 079°52'1615.5
2016-May-16 00:33N 09°48' W 079°44'  
Track history (hours):
 
Tides and Currents Weather Stations Pressure Air Temp Water Temp Dewpoint Dewpoint Depression Visibility Wind Speed Wind Dir Waves Ship Positions

Afric Star

Last reported at 2016-May-17 01:18 UTC. Time now 2016-May-27 02:21 UTC.
Position N 09°06' W 079°41'.
Warning: this ship's position is 10 days out of date.

Length 158 m; draft 7.6 m.

Type: Cargo ship. MMSI: 636013069.

Date/timePositionNaut miles runAvg speedWind from/ knotsBaromVisibWave heightAir tempDewpointWater temp
2016-May-17 01:18N 09°06' W 079°41'5 6.1
2016-May-17 00:34N 09°07' W 079°46'1111.4
2016-May-16 23:33N 09°13' W 079°55'3 3.3
2016-May-16 22:32N 09°17' W 079°55'0 0.4
2016-May-16 21:33N 09°17' W 079°55'4 3.9
2016-May-16 20:34N 09°21' W 079°55'2 1.5
2016-May-16 19:31N 09°22' W 079°56'0 0.1
2016-May-16 18:31N 09°22' W 079°56'0 0.0
2016-May-16 17:31N 09°22' W 079°56'0 0.1
2016-May-16 16:28N 09°22' W 079°56'0 0.1
2016-May-16 15:31N 09°22' W 079°56'0 0.0
2016-May-16 14:31N 09°22' W 079°56'1 0.8
2016-May-16 13:33N 09°23' W 079°55'2 1.9
2016-May-16 12:29N 09°24' W 079°57'0 0.0
2016-May-16 11:31N 09°24' W 079°57'0 0.1
2016-May-16 10:31N 09°24' W 079°56'0 0.1
2016-May-16 09:32N 09°24' W 079°56'0 0.0
2016-May-16 08:31N 09°24' W 079°56'0 0.0
2016-May-16 07:28N 09°24' W 079°56'0 0.0
2016-May-16 06:34N 09°24' W 079°56'0 0.0
2016-May-16 05:31N 09°24' W 079°56'0 0.0
2016-May-16 04:28N 09°24' W 079°56'0 0.0
2016-May-16 03:31N 09°24' W 079°56'1 0.6
2016-May-16 02:34N 09°25' W 079°56'1110.6
2016-May-16 01:33N 09°34' W 079°52'1615.5
2016-May-16 00:33N 09°48' W 079°44'  

Dump ship's entire track history